TimeMST,TemperatureF,Dew PointF,Humidity,Sea Level PressureIn,VisibilityMPH,Wind Direction,Wind SpeedMPH,Gust SpeedMPH,PrecipitationIn,Events,Conditions,WindDirDegrees,DateUTC
5:00 AM,36,22,45,29.98,7,West,20.7,,,,Mostly Cloudy,270,2013-12-12 12:00:00
5:00 AM,35.6,23.0,60,29.97,7.0,West,20.7,-,N/A,Fog-Snow,Low Drifting Snow,270,2013-12-12 12:00:00
5:52 AM,37.4,21.2,52,29.96,6.0,West,17.3,-,N/A,,Mostly Cloudy,280,2013-12-12 12:52:00
6:00 AM,37.4,21.2,52,29.96,6.0,West,17.3,-,N/A,,Mostly Cloudy,280,2013-12-12 13:00:00
6:21 AM,37.4,21.2,52,29.96,6.0,West,11.5,-,N/A,,Mostly Cloudy,280,2013-12-12 13:21:00
6:35 AM,35.6,21.2,56,29.97,6.0,West,13.8,-,N/A,,Mostly Cloudy,270,2013-12-12 13:35:00
7:00 AM,35.6,21.2,56,29.98,7.0,WNW,11.5,17.3,N/A,,Mostly Cloudy,290,2013-12-12 14:00:00
7:14 AM,32.0,21.2,64,29.98,14.0,NNW,4.6,-,N/A,,Mostly Cloudy,340,2013-12-12 14:14:00
8:00 AM,35.6,19.4,52,29.97,15.0,West,10.4,23.0,N/A,,Mostly Cloudy,280,2013-12-12 15:00:00
9:00 AM,19.4,14.0,80,30.01,30.0,SE,9.2,-,N/A,,Mostly Cloudy,130,2013-12-12 16:00:00
10:00 AM,15.8,10.4,79,30.04,30.0,SE,9.2,-,N/A,,Overcast,140,2013-12-12 17:00:00
11:00 AM,15,10,73,30.05,19,ESE,8.1,,,,Overcast,120,2013-12-12 18:00:00
11:00 AM,14.0,10.4,86,30.05,20.0,SE,8.1,-,N/A,,Overcast,140,2013-12-12 18:00:00
12:00 PM,14.0,8.6,79,30.03,20.0,SSE,6.9,-,N/A,,Overcast,160,2013-12-12 19:00:00
1:00 PM,14.0,8.6,79,30.02,20.0,South,6.9,-,N/A,,Overcast,170,2013-12-12 20:00:00
2:00 PM,12.2,6.8,79,29.99,20.0,ESE,5.8,-,N/A,,Overcast,110,2013-12-12 21:00:00
3:00 PM,10.4,6.8,85,29.99,20.0,East,9.2,-,N/A,,Overcast,100,2013-12-12 22:00:00
4:00 PM,8.6,3.2,79,29.99,20.0,East,6.9,-,N/A,,Overcast,80,2013-12-12 23:00:00
5:00 PM,6,3,79,30.01,19,ENE,6.9,,,,Overcast,70,2013-12-13 00:00:00
5:00 PM,6.8,3.2,85,30.01,20.0,ENE,8.1,-,N/A,,Overcast,70,2013-12-13 00:00:00
6:00 PM,5.0,1.4,85,30.03,10.0,ENE,5.8,-,N/A,,Overcast,60,2013-12-13 01:00:00
7:00 PM,3.2,-0.4,85,30.05,10.0,ENE,5.8,-,N/A,,Overcast,70,2013-12-13 02:00:00
8:00 PM,1.4,-2.2,85,30.06,10.0,East,6.9,-,N/A,,Mostly Cloudy,80,2013-12-13 03:00:00
9:00 PM,1.4,-2.2,85,30.11,10.0,East,6.9,-,N/A,,Mostly Cloudy,90,2013-12-13 04:00:00
10:00 PM,1.4,-2.2,85,30.12,11.0,East,5.8,-,N/A,,Mostly Cloudy,90,2013-12-13 05:00:00